createdAt,value
2022-10-16T00:00:37.592Z,1019.4
2022-10-16T00:06:13.600Z,1019.4
2022-10-16T00:11:51.203Z,1019.4
2022-10-16T00:17:16.876Z,1019.5
2022-10-16T00:22:56.823Z,1019.6
2022-10-16T00:28:25.500Z,1019.5
2022-10-16T00:33:56.871Z,1019.7
2022-10-16T00:39:37.414Z,1019.6
2022-10-16T00:45:24.974Z,1019.8
2022-10-16T00:56:13.639Z,1019.7
2022-10-16T01:01:47.647Z,1019.7
2022-10-16T01:07:33.195Z,1019.7
2022-10-16T01:13:09.089Z,1019.6
2022-10-16T01:18:50.012Z,1019.6
2022-10-16T01:24:02.781Z,1020
2022-10-16T01:29:56.262Z,1019.9
2022-10-16T01:35:13.250Z,1019.9
2022-10-16T01:40:58.231Z,1019.8
2022-10-16T01:51:47.857Z,1019.8
2022-10-16T01:57:36.468Z,1019.7
2022-10-16T02:08:27.235Z,1019.7
2022-10-16T02:14:03.649Z,1019.7
2022-10-16T02:19:44.072Z,1019.6
2022-10-16T02:25:14.952Z,1019.8
2022-10-16T02:30:41.554Z,1019.9
2022-10-16T02:36:41.818Z,1019.8
2022-10-16T02:42:05.176Z,1019.8
2022-10-16T02:47:26.939Z,1019.8
2022-10-16T02:53:07.830Z,1019.9
2022-10-16T02:58:38.372Z,1019.9
2022-10-16T03:04:31.518Z,1020
2022-10-16T03:20:54.221Z,1020.1
2022-10-16T03:32:11.868Z,1020.2
2022-10-16T03:48:38.558Z,1020.2
2022-10-16T04:05:45.542Z,1020.2
2022-10-16T04:38:47.730Z,1020.3
2022-10-16T04:55:31.992Z,1020.4
2022-10-16T05:12:34.686Z,1020.5
2022-10-16T05:34:35.321Z,1020.6
2022-10-16T07:03:47.366Z,1021.3
2022-10-16T07:09:24.615Z,1021.3
2022-10-16T07:31:31.085Z,1021.6
2022-10-16T07:37:26.292Z,1021.6
2022-10-16T07:48:21.449Z,1021.7
2022-10-16T07:59:38.290Z,1021.5
2022-10-16T08:05:00.260Z,1021.5
2022-10-16T08:16:06.330Z,1021.4
2022-10-16T08:21:40.779Z,1021.5
2022-10-16T08:27:28.350Z,1021.6
2022-10-16T08:38:44.181Z,1021.3
2022-10-16T08:44:01.808Z,1021.3
2022-10-16T08:49:44.665Z,1021.5
2022-10-16T08:55:23.002Z,1021.4
2022-10-16T09:01:11.683Z,1021.3
2022-10-16T09:06:34.878Z,1021.2
2022-10-16T09:11:57.162Z,1021.1
2022-10-16T09:17:35.636Z,1021.1
2022-10-16T09:23:07.827Z,1021.1
2022-10-16T09:34:37.432Z,1021.3
2022-10-16T09:40:03.798Z,1021.4
2022-10-16T09:45:41.595Z,1021.4
2022-10-16T09:51:08.102Z,1021.1
2022-10-16T09:56:58.367Z,1021.2
2022-10-16T10:02:35.580Z,1020.9
2022-10-16T10:07:57.008Z,1021
2022-10-16T10:13:19.826Z,1020.9
2022-10-16T10:19:12.769Z,1021
2022-10-16T10:24:36.092Z,1020.8
2022-10-16T10:30:22.578Z,1020.7
2022-10-16T10:35:54.463Z,1020.6
2022-10-16T10:41:25.520Z,1020.6
2022-10-16T10:47:09.897Z,1020.2
2022-10-16T10:52:26.149Z,1020.5
2022-10-16T10:58:20.427Z,1020.1
2022-10-16T11:03:58.234Z,1020.1
2022-10-16T11:09:26.161Z,1019.8
2022-10-16T11:15:09.016Z,1019.7
2022-10-16T11:20:34.544Z,1019.8
2022-10-16T11:26:19.124Z,1019.6
2022-10-16T11:31:30.828Z,1019.6
2022-10-16T11:43:02.439Z,1019.5
2022-10-16T11:48:40.414Z,1019.4
2022-10-16T11:53:50.880Z,1019.3
2022-10-16T11:59:42.942Z,1019.4
2022-10-16T12:05:10.443Z,1019.2
2022-10-16T12:10:35.554Z,1019.1
2022-10-16T12:16:21.353Z,1019
2022-10-16T12:22:01.547Z,1018.9
2022-10-16T12:27:45.154Z,1018.9
2022-10-16T12:33:14.971Z,1018.9
2022-10-16T12:38:50.271Z,1018.9
2022-10-16T12:44:37.050Z,1018.9
2022-10-16T13:01:12.761Z,1018.6
2022-10-16T13:07:06.567Z,1018.8
2022-10-16T13:12:31.946Z,1018.7
2022-10-16T13:18:25.187Z,1018.8
2022-10-16T13:29:46.749Z,1018.9
2022-10-16T13:35:12.805Z,1018.7
2022-10-16T13:40:53.572Z,1018.6
2022-10-16T13:46:32.740Z,1018.5
2022-10-16T13:52:07.474Z,1018.6
2022-10-16T13:57:33.427Z,1018.5
2022-10-16T14:03:21.933Z,1018.6
2022-10-16T14:09:10.143Z,1018.6
2022-10-16T14:14:41.401Z,1018.6
2022-10-16T14:25:47.609Z,1018.6
2022-10-16T14:31:23.432Z,1018.4
2022-10-16T14:42:54.066Z,1018.7
2022-10-16T14:48:05.809Z,1018.9
2022-10-16T14:53:37.486Z,1018.9
2022-10-16T14:59:38.005Z,1019.1
2022-10-16T15:04:51.104Z,1019.2
2022-10-16T15:10:40.524Z,1019
2022-10-16T15:16:05.025Z,1019
2022-10-16T15:21:38.821Z,1019
2022-10-16T15:27:23.944Z,1018.9
2022-10-16T15:33:06.464Z,1019
2022-10-16T15:43:53.080Z,1019.5
2022-10-16T15:55:03.884Z,1019.4
2022-10-16T16:17:32.136Z,1020.6
2022-10-16T16:34:27.184Z,1020.8
2022-10-16T16:40:02.474Z,1021.1
2022-10-16T16:45:41.583Z,1021.2
2022-10-16T16:51:14.689Z,1021.3
2022-10-16T17:13:18.086Z,1021.8
2022-10-16T17:18:53.477Z,1022
2022-10-16T17:24:37.143Z,1022.1
2022-10-16T17:30:02.638Z,1022.4
2022-10-16T17:35:37.059Z,1022.7
2022-10-16T17:41:14.222Z,1022.6
2022-10-16T17:46:46.860Z,1022.4
2022-10-16T17:52:20.852Z,1022.1
2022-10-16T17:58:05.512Z,1022.2
2022-10-16T18:03:26.052Z,1022.5
2022-10-16T18:08:52.225Z,1022.3
2022-10-16T18:14:17.928Z,1022.1
2022-10-16T18:20:19.251Z,1022.2
2022-10-16T18:25:28.336Z,1022.4
2022-10-16T18:31:15.348Z,1022.5
2022-10-16T18:36:41.559Z,1022.6
2022-10-16T18:42:17.449Z,1022.7
2022-10-16T18:47:46.294Z,1022.6
2022-10-16T18:53:31.408Z,1022.6
2022-10-16T18:59:01.067Z,1022.8
2022-10-16T19:04:23.482Z,1022.9
2022-10-16T19:10:16.925Z,1023.1
2022-10-16T19:15:53.310Z,1023.3
2022-10-16T19:21:19.992Z,1023.5
2022-10-16T19:26:44.166Z,1023.8
2022-10-16T19:32:31.667Z,1023.9
2022-10-16T19:37:51.447Z,1024
2022-10-16T19:43:18.919Z,1024.1
2022-10-16T19:48:59.633Z,1024.3
2022-10-16T19:54:39.284Z,1024.6
2022-10-16T20:00:03.355Z,1024.6
2022-10-16T20:05:30.675Z,1024.5
2022-10-16T20:11:14.365Z,1024.6
2022-10-16T20:16:56.274Z,1024.7
2022-10-16T20:22:34.003Z,1024.8
2022-10-16T20:27:51.317Z,1024.8
2022-10-16T20:33:39.172Z,1024.9
2022-10-16T20:39:16.015Z,1025
2022-10-16T20:44:33.171Z,1025.1
2022-10-16T20:50:08.270Z,1025.2
2022-10-16T20:55:55.577Z,1025.4
2022-10-16T21:01:09.845Z,1025.4
2022-10-16T21:06:44.359Z,1025.4
2022-10-16T21:12:21.715Z,1025.4
2022-10-16T21:17:52.008Z,1025.4
2022-10-16T21:23:41.485Z,1025.4
2022-10-16T21:28:58.358Z,1025.5
2022-10-16T21:34:24.920Z,1025.4
2022-10-16T21:40:18.383Z,1025.5
2022-10-16T21:45:39.208Z,1025.6
2022-10-16T21:51:18.921Z,1025.6
2022-10-16T21:56:42.211Z,1025.7
2022-10-16T22:02:10.966Z,1025.6
2022-10-16T22:07:58.525Z,1025.6
2022-10-16T22:13:31.865Z,1025.8
2022-10-16T22:19:04.532Z,1025.8
2022-10-16T22:24:26.398Z,1025.8
2022-10-16T22:30:00.880Z,1025.8
2022-10-16T22:35:38.574Z,1025.9
2022-10-16T22:41:11.927Z,1025.7
2022-10-16T22:46:46.036Z,1025.8
2022-10-16T22:52:30.157Z,1025.8
2022-10-16T22:57:42.246Z,1025.8
2022-10-16T23:03:35.303Z,1025.7
2022-10-16T23:08:56.799Z,1025.9
2022-10-16T23:14:47.569Z,1025.9
2022-10-16T23:20:17.533Z,1025.8
2022-10-16T23:25:43.600Z,1026
2022-10-16T23:31:11.058Z,1026.1
2022-10-16T23:36:55.222Z,1025.9
2022-10-16T23:42:23.132Z,1025.9
2022-10-16T23:48:08.818Z,1025.9
2022-10-16T23:53:21.795Z,1026.1
2022-10-16T23:59:13.300Z,1026
